Nos Reves — PB9455 — position and weather

sailwx.info

Track history (hours):
 
Tides and Currents Weather Stations Pressure Air Temp Water Temp Dewpoint Dewpoint Depression Visibility Wind Speed Wind Dir Waves Ship Positions

Nos Reves

Last reported at 2016-May-30 08:32 UTC. Time now 2016-May-30 08:52 UTC.
Position N 43°34' E 007°05'.

Length 15 m.

Type: Sailing vessel. MMSI: 244650262.

Date/timePositionNaut miles runAvg speedWind from/ knotsBaromVisibWave heightAir tempDewpointWater temp
2016-May-30 08:32N 43°34' E 007°05'0 0.0
2016-May-30 07:32N 43°34' E 007°05'0 0.0
2016-May-30 06:26N 43°34' E 007°05'0 0.0
2016-May-30 05:32N 43°34' E 007°05'0 0.0
2016-May-30 04:32N 43°34' E 007°05'0 0.0
2016-May-30 03:26N 43°34' E 007°05'0 0.0
2016-May-30 02:32N 43°34' E 007°05'0 0.0
2016-May-30 01:26N 43°34' E 007°05'0 0.0
2016-May-30 00:32N 43°34' E 007°05'0 0.0
2016-May-29 23:26N 43°34' E 007°05'0 0.0
2016-May-29 22:20N 43°34' E 007°05'0 0.0
2016-May-29 21:26N 43°34' E 007°05'0 0.0
2016-May-29 20:20N 43°34' E 007°05'0 0.0
2016-May-29 19:32N 43°34' E 007°05'0 0.0
2016-May-29 18:32N 43°34' E 007°05'0 0.0
2016-May-29 17:32N 43°34' E 007°05'0 0.0
2016-May-29 16:32N 43°34' E 007°05'0 0.0
2016-May-29 15:32N 43°34' E 007°05'0 0.0
2016-May-29 14:26N 43°34' E 007°05'0 0.0
2016-May-29 13:32N 43°34' E 007°05'0 0.0
2016-May-29 12:32N 43°34' E 007°05'0 0.0
2016-May-29 11:32N 43°34' E 007°05'0 0.0
2016-May-29 10:32N 43°34' E 007°05'0 0.0
2016-May-29 09:30N 43°34' E 007°05'0 0.0
2016-May-29 08:30N 43°34' E 007°05'0 0.0
2016-May-29 07:30N 43°34' E 007°05'0 0.0
2016-May-29 06:30N 43°34' E 007°05'0 0.0
2016-May-29 05:24N 43°34' E 007°05'0 0.0
2016-May-29 04:30N 43°34' E 007°05'0 0.0
2016-May-29 03:30N 43°34' E 007°05'0 0.0
2016-May-29 02:30N 43°34' E 007°05'0 0.0
2016-May-29 01:30N 43°34' E 007°05'0 0.0
2016-May-29 00:30N 43°34' E 007°05'0 0.0
2016-May-28 23:30N 43°34' E 007°05'0 0.0
2016-May-28 22:30N 43°34' E 007°05'0 0.0
2016-May-28 21:30N 43°34' E 007°05'0 0.0
2016-May-28 20:30N 43°34' E 007°05'0 0.0
2016-May-28 19:30N 43°34' E 007°05'0 0.0
2016-May-28 18:12N 43°34' E 007°05'0 0.0
2016-May-28 17:30N 43°34' E 007°05'0 0.0
2016-May-28 16:30N 43°34' E 007°05'0 0.0
2016-May-28 15:30N 43°34' E 007°05'0 0.0
2016-May-28 14:30N 43°34' E 007°05'2 2.3
2016-May-28 13:33N 43°32' E 007°05'2 1.2
2016-May-28 12:08N 43°31' E 007°03'0 0.0
2016-May-28 11:32N 43°31' E 007°03'0 0.0
2016-May-28 10:14N 43°31' E 007°03'1 1.0
2016-May-28 09:30N 43°31' E 007°02'1 0.0
2016-May-27 11:33N 43°32' E 007°01'0 0.4
2016-May-27 10:30N 43°32' E 007°02'3 3.6
2016-May-27 09:33N 43°31' E 007°06'3 3.1
2016-May-27 08:29N 43°34' E 007°05'0 0.0
2016-May-27 07:11N 43°34' E 007°05'0 0.0
2016-May-27 06:29N 43°34' E 007°05'0 0.0
2016-May-27 05:29N 43°34' E 007°05'0 0.0
2016-May-27 04:29N 43°34' E 007°05'0 0.0
2016-May-27 03:23N 43°34' E 007°05'0 0.0
2016-May-27 02:29N 43°34' E 007°05'0 0.0
2016-May-27 01:29N 43°34' E 007°05'0 0.0
2016-May-27 00:29N 43°34' E 007°05'0 0.0
2016-May-26 23:29N 43°34' E 007°05'0 0.0
2016-May-26 22:29N 43°34' E 007°05'0 0.0
2016-May-26 21:29N 43°34' E 007°05'0 0.0
2016-May-26 20:29N 43°34' E 007°05'0 0.0
2016-May-26 19:29N 43°34' E 007°05'0 0.0
2016-May-26 18:23N 43°34' E 007°05'0 0.0
2016-May-26 17:29N 43°34' E 007°05'0 0.0
2016-May-26 16:29N 43°34' E 007°05'0 0.0
2016-May-26 15:23N 43°34' E 007°05'0 0.0
2016-May-26 14:23N 43°34' E 007°05'0 0.0
2016-May-26 13:23N 43°34' E 007°05'0 0.0
2016-May-26 12:23N 43°34' E 007°05'0 0.0
2016-May-26 11:29N 43°34' E 007°05'0 0.0
2016-May-26 10:29N 43°34' E 007°05'0 0.0
2016-May-26 09:29N 43°34' E 007°05'0 0.0
2016-May-26 08:29N 43°34' E 007°05'0 0.0
2016-May-26 07:29N 43°34' E 007°05'0 0.0
2016-May-26 06:29N 43°34' E 007°05'0 0.0
2016-May-26 05:32N 43°34' E 007°05'0 0.0
2016-May-26 04:26N 43°34' E 007°05'0 0.0
2016-May-26 03:26N 43°34' E 007°05'0 0.0
2016-May-26 02:32N 43°34' E 007°05'0 0.0
2016-May-26 01:32N 43°34' E 007°05'0 0.0
2016-May-26 00:32N 43°34' E 007°05'0 0.0
2016-May-25 23:32N 43°34' E 007°05'0 0.0
2016-May-25 22:32N 43°34' E 007°05'0 0.0
2016-May-25 21:32N 43°34' E 007°05'0 0.0
2016-May-25 19:31N 43°34' E 007°05'0 0.0
2016-May-25 18:25N 43°34' E 007°05'0 0.0
2016-May-25 17:31N 43°34' E 007°05'0 0.0
2016-May-25 16:25N 43°34' E 007°05'0 0.0
2016-May-25 15:31N 43°34' E 007°05'0 0.0
2016-May-25 14:31N 43°34' E 007°05'0 0.0
2016-May-25 13:31N 43°34' E 007°05'0 0.4
2016-May-25 12:33N 43°34' E 007°05'2 2.5
2016-May-25 11:33N 43°31' E 007°06'3 3.1
2016-May-25 10:33N 43°30' E 007°02'1 0.4
2016-May-25 07:22N 43°31' E 007°03'0 0.0
2016-May-25 06:16N 43°31' E 007°03'0 0.0
2016-May-25 05:28N 43°31' E 007°03'0 0.0
2016-May-24 13:09N 43°31' E 007°03'3 4.6
2016-May-24 12:29N 43°31' E 007°07'1 1.4
2016-May-24 11:33N 43°32' E 007°08'3 2.7
2016-May-24 10:31N 43°34' E 007°05'0 0.0
2016-May-24 09:31N 43°34' E 007°05'0 0.0
2016-May-24 08:31N 43°34' E 007°05'0 0.0
2016-May-24 07:31N 43°34' E 007°05'0 0.0
2016-May-24 06:31N 43°34' E 007°05'0 0.0
2016-May-24 05:25N 43°34' E 007°05'0 0.0
2016-May-24 04:25N 43°34' E 007°05'0 0.0
2016-May-24 03:31N 43°34' E 007°05'0 0.0
2016-May-24 02:31N 43°34' E 007°05'0 0.0
2016-May-24 01:31N 43°34' E 007°05'0 0.0
2016-May-24 00:31N 43°34' E 007°05'0 0.0
2016-May-23 23:31N 43°34' E 007°05'0 0.0
2016-May-23 22:25N 43°34' E 007°05'0 0.0
2016-May-23 21:31N 43°34' E 007°05'0 0.0
2016-May-23 20:31N 43°34' E 007°05'0 0.0
2016-May-23 19:31N 43°34' E 007°05'0 0.0
2016-May-23 18:31N 43°34' E 007°05'0 0.0
2016-May-23 17:25N 43°34' E 007°05'0 0.0
2016-May-23 16:31N 43°34' E 007°05'0 0.0
2016-May-23 15:33N 43°34' E 007°05'0 0.0
2016-May-23 14:28N 43°34' E 007°05'0 0.0
2016-May-23 13:16N 43°34' E 007°05'0 0.0
2016-May-23 12:31N 43°34' E 007°05'0 0.0
2016-May-23 11:31N 43°34' E 007°05'0 0.0
2016-May-23 10:31N 43°34' E 007°05'0 0.0
2016-May-23 09:31N 43°34' E 007°05'0 0.0
2016-May-23 08:31N 43°34' E 007°05'0 0.0
2016-May-23 07:31N 43°34' E 007°05'0 0.0
2016-May-23 06:31N 43°34' E 007°05'0 0.0
2016-May-23 05:31N 43°34' E 007°05'0 0.0
2016-May-23 04:31N 43°34' E 007°05'0 0.0
2016-May-23 03:31N 43°34' E 007°05'0 0.0
2016-May-23 02:31N 43°34' E 007°05'0 0.0
2016-May-23 01:25N 43°34' E 007°05'0 0.0
2016-May-23 00:31N 43°34' E 007°05'0 0.0
2016-May-22 23:31N 43°34' E 007°05'0 0.0
2016-May-22 22:31N 43°34' E 007°05'0 0.0
2016-May-22 21:31N 43°34' E 007°05'0 0.0
2016-May-22 20:31N 43°34' E 007°05'0 0.0
2016-May-22 19:25N 43°34' E 007°05'0 0.0
2016-May-22 18:31N 43°34' E 007°05'0 0.0
2016-May-22 17:31N 43°34' E 007°05'0 0.0
2016-May-22 16:25N 43°34' E 007°05'0 0.0
2016-May-22 15:10N 43°34' E 007°05'0 0.0
2016-May-22 14:32N 43°34' E 007°05'0 0.0
2016-May-22 12:32N 43°34' E 007°05'0 0.0
2016-May-22 11:32N 43°34' E 007°05'0 0.0
2016-May-22 10:26N 43°34' E 007°05'0 0.0
2016-May-22 09:32N 43°34' E 007°05'0 0.0
2016-May-22 08:26N 43°34' E 007°05'0 0.0
2016-May-22 07:32N 43°34' E 007°05'0 0.0
2016-May-22 06:26N 43°34' E 007°05'0 0.0
2016-May-22 05:26N 43°34' E 007°05'0 0.0
2016-May-22 04:20N 43°34' E 007°05'0 0.0
2016-May-22 03:32N 43°34' E 007°05'0 0.0
2016-May-22 02:32N 43°34' E 007°05'0 0.0
2016-May-22 01:32N 43°34' E 007°05'0 0.0
2016-May-22 00:26N 43°34' E 007°05'0 0.0
2016-May-21 23:26N 43°34' E 007°05'0 0.0
2016-May-21 22:32N 43°34' E 007°05'0 0.0
2016-May-21 21:32N 43°34' E 007°05'0 0.0
2016-May-21 20:32N 43°34' E 007°05'0 0.0
2016-May-21 19:32N 43°34' E 007°05'0 0.0
2016-May-21 18:32N 43°34' E 007°05'0 0.0
2016-May-21 17:32N 43°34' E 007°05'0 0.0
2016-May-21 16:32N 43°34' E 007°05'0 0.0
2016-May-21 15:32N 43°34' E 007°05'0 0.0
2016-May-21 14:32N 43°34' E 007°05'0 0.0
2016-May-21 13:26N 43°34' E 007°05'1 0.7
2016-May-21 12:30N 43°33' E 007°05'4 4.5
2016-May-21 11:33N 43°29' E 007°06'3 2.3
2016-May-21 10:14N 43°31' E 007°03'1 0.8
2016-May-21 08:33N 43°31' E 007°05'3 3.0
2016-May-21 07:31N 43°34' E 007°05'0 0.0
2016-May-21 06:31N 43°34' E 007°05'0 0.0
2016-May-21 05:31N 43°34' E 007°05'0 0.0
2016-May-21 04:31N 43°34' E 007°05'0 0.0
2016-May-21 03:31N 43°34' E 007°05'0 0.0
2016-May-21 02:13N 43°34' E 007°05'0 0.0
2016-May-21 01:31N 43°34' E 007°05'0 0.0
2016-May-21 00:31N 43°34' E 007°05'0 0.0
2016-May-20 23:27N 43°34' E 007°05'0 0.0
2016-May-20 22:33N 43°34' E 007°05'0 0.0
2016-May-20 21:33N 43°34' E 007°05'0 0.0
2016-May-20 20:33N 43°34' E 007°05'0 0.0
2016-May-20 19:33N 43°34' E 007°05'0 0.0
2016-May-20 18:27N 43°34' E 007°05'0 0.0
2016-May-20 17:33N 43°34' E 007°05'0 0.0
2016-May-20 16:27N 43°34' E 007°05'0 0.0
2016-May-20 15:33N 43°34' E 007°05'0 0.0
2016-May-20 14:21N 43°34' E 007°05'0 0.0
2016-May-20 13:33N 43°34' E 007°05'0 0.0
2016-May-20 12:30N 43°34' E 007°05'0 0.0
2016-May-20 11:30N 43°34' E 007°05'0 0.0
2016-May-20 10:30N 43°34' E 007°05'  
Track history (hours):
 
Tides and Currents Weather Stations Pressure Air Temp Water Temp Dewpoint Dewpoint Depression Visibility Wind Speed Wind Dir Waves Ship Positions

Nos Reves

Last reported at 2016-May-30 08:32 UTC. Time now 2016-May-30 08:52 UTC.
Position N 43°34' E 007°05'.

Length 15 m.

Type: Sailing vessel. MMSI: 244650262.

Date/timePositionNaut miles runAvg speedWind from/ knotsBaromVisibWave heightAir tempDewpointWater temp
2016-May-30 08:32N 43°34' E 007°05'0 0.0
2016-May-30 07:32N 43°34' E 007°05'0 0.0
2016-May-30 06:26N 43°34' E 007°05'0 0.0
2016-May-30 05:32N 43°34' E 007°05'0 0.0
2016-May-30 04:32N 43°34' E 007°05'0 0.0
2016-May-30 03:26N 43°34' E 007°05'0 0.0
2016-May-30 02:32N 43°34' E 007°05'0 0.0
2016-May-30 01:26N 43°34' E 007°05'0 0.0
2016-May-30 00:32N 43°34' E 007°05'0 0.0
2016-May-29 23:26N 43°34' E 007°05'0 0.0
2016-May-29 22:20N 43°34' E 007°05'0 0.0
2016-May-29 21:26N 43°34' E 007°05'0 0.0
2016-May-29 20:20N 43°34' E 007°05'0 0.0
2016-May-29 19:32N 43°34' E 007°05'0 0.0
2016-May-29 18:32N 43°34' E 007°05'0 0.0
2016-May-29 17:32N 43°34' E 007°05'0 0.0
2016-May-29 16:32N 43°34' E 007°05'0 0.0
2016-May-29 15:32N 43°34' E 007°05'0 0.0
2016-May-29 14:26N 43°34' E 007°05'0 0.0
2016-May-29 13:32N 43°34' E 007°05'0 0.0
2016-May-29 12:32N 43°34' E 007°05'0 0.0
2016-May-29 11:32N 43°34' E 007°05'0 0.0
2016-May-29 10:32N 43°34' E 007°05'0 0.0
2016-May-29 09:30N 43°34' E 007°05'0 0.0
2016-May-29 08:30N 43°34' E 007°05'0 0.0
2016-May-29 07:30N 43°34' E 007°05'0 0.0
2016-May-29 06:30N 43°34' E 007°05'0 0.0
2016-May-29 05:24N 43°34' E 007°05'0 0.0
2016-May-29 04:30N 43°34' E 007°05'0 0.0
2016-May-29 03:30N 43°34' E 007°05'0 0.0
2016-May-29 02:30N 43°34' E 007°05'0 0.0
2016-May-29 01:30N 43°34' E 007°05'0 0.0
2016-May-29 00:30N 43°34' E 007°05'0 0.0
2016-May-28 23:30N 43°34' E 007°05'0 0.0
2016-May-28 22:30N 43°34' E 007°05'0 0.0
2016-May-28 21:30N 43°34' E 007°05'0 0.0
2016-May-28 20:30N 43°34' E 007°05'0 0.0
2016-May-28 19:30N 43°34' E 007°05'0 0.0
2016-May-28 18:12N 43°34' E 007°05'0 0.0
2016-May-28 17:30N 43°34' E 007°05'0 0.0
2016-May-28 16:30N 43°34' E 007°05'0 0.0
2016-May-28 15:30N 43°34' E 007°05'0 0.0
2016-May-28 14:30N 43°34' E 007°05'2 2.3
2016-May-28 13:33N 43°32' E 007°05'2 1.2
2016-May-28 12:08N 43°31' E 007°03'0 0.0
2016-May-28 11:32N 43°31' E 007°03'0 0.0
2016-May-28 10:14N 43°31' E 007°03'1 1.0
2016-May-28 09:30N 43°31' E 007°02'1 0.0
2016-May-27 11:33N 43°32' E 007°01'0 0.4
2016-May-27 10:30N 43°32' E 007°02'3 3.6
2016-May-27 09:33N 43°31' E 007°06'3 3.1
2016-May-27 08:29N 43°34' E 007°05'0 0.0
2016-May-27 07:11N 43°34' E 007°05'0 0.0
2016-May-27 06:29N 43°34' E 007°05'0 0.0
2016-May-27 05:29N 43°34' E 007°05'0 0.0
2016-May-27 04:29N 43°34' E 007°05'0 0.0
2016-May-27 03:23N 43°34' E 007°05'0 0.0
2016-May-27 02:29N 43°34' E 007°05'0 0.0
2016-May-27 01:29N 43°34' E 007°05'0 0.0
2016-May-27 00:29N 43°34' E 007°05'0 0.0
2016-May-26 23:29N 43°34' E 007°05'0 0.0
2016-May-26 22:29N 43°34' E 007°05'0 0.0
2016-May-26 21:29N 43°34' E 007°05'0 0.0
2016-May-26 20:29N 43°34' E 007°05'0 0.0
2016-May-26 19:29N 43°34' E 007°05'0 0.0
2016-May-26 18:23N 43°34' E 007°05'0 0.0
2016-May-26 17:29N 43°34' E 007°05'0 0.0
2016-May-26 16:29N 43°34' E 007°05'0 0.0
2016-May-26 15:23N 43°34' E 007°05'0 0.0
2016-May-26 14:23N 43°34' E 007°05'0 0.0
2016-May-26 13:23N 43°34' E 007°05'0 0.0
2016-May-26 12:23N 43°34' E 007°05'0 0.0
2016-May-26 11:29N 43°34' E 007°05'0 0.0
2016-May-26 10:29N 43°34' E 007°05'0 0.0
2016-May-26 09:29N 43°34' E 007°05'0 0.0
2016-May-26 08:29N 43°34' E 007°05'0 0.0
2016-May-26 07:29N 43°34' E 007°05'0 0.0
2016-May-26 06:29N 43°34' E 007°05'0 0.0
2016-May-26 05:32N 43°34' E 007°05'0 0.0
2016-May-26 04:26N 43°34' E 007°05'0 0.0
2016-May-26 03:26N 43°34' E 007°05'0 0.0
2016-May-26 02:32N 43°34' E 007°05'0 0.0
2016-May-26 01:32N 43°34' E 007°05'0 0.0
2016-May-26 00:32N 43°34' E 007°05'0 0.0
2016-May-25 23:32N 43°34' E 007°05'0 0.0
2016-May-25 22:32N 43°34' E 007°05'0 0.0
2016-May-25 21:32N 43°34' E 007°05'0 0.0
2016-May-25 19:31N 43°34' E 007°05'0 0.0
2016-May-25 18:25N 43°34' E 007°05'0 0.0
2016-May-25 17:31N 43°34' E 007°05'0 0.0
2016-May-25 16:25N 43°34' E 007°05'0 0.0
2016-May-25 15:31N 43°34' E 007°05'0 0.0
2016-May-25 14:31N 43°34' E 007°05'0 0.0
2016-May-25 13:31N 43°34' E 007°05'0 0.4
2016-May-25 12:33N 43°34' E 007°05'2 2.5
2016-May-25 11:33N 43°31' E 007°06'3 3.1
2016-May-25 10:33N 43°30' E 007°02'1 0.4
2016-May-25 07:22N 43°31' E 007°03'0 0.0
2016-May-25 06:16N 43°31' E 007°03'0 0.0
2016-May-25 05:28N 43°31' E 007°03'0 0.0
2016-May-24 13:09N 43°31' E 007°03'3 4.6
2016-May-24 12:29N 43°31' E 007°07'1 1.4
2016-May-24 11:33N 43°32' E 007°08'3 2.7
2016-May-24 10:31N 43°34' E 007°05'0 0.0
2016-May-24 09:31N 43°34' E 007°05'0 0.0
2016-May-24 08:31N 43°34' E 007°05'0 0.0
2016-May-24 07:31N 43°34' E 007°05'0 0.0
2016-May-24 06:31N 43°34' E 007°05'0 0.0
2016-May-24 05:25N 43°34' E 007°05'0 0.0
2016-May-24 04:25N 43°34' E 007°05'0 0.0
2016-May-24 03:31N 43°34' E 007°05'0 0.0
2016-May-24 02:31N 43°34' E 007°05'0 0.0
2016-May-24 01:31N 43°34' E 007°05'0 0.0
2016-May-24 00:31N 43°34' E 007°05'0 0.0
2016-May-23 23:31N 43°34' E 007°05'0 0.0
2016-May-23 22:25N 43°34' E 007°05'0 0.0
2016-May-23 21:31N 43°34' E 007°05'0 0.0
2016-May-23 20:31N 43°34' E 007°05'0 0.0
2016-May-23 19:31N 43°34' E 007°05'0 0.0
2016-May-23 18:31N 43°34' E 007°05'0 0.0
2016-May-23 17:25N 43°34' E 007°05'0 0.0
2016-May-23 16:31N 43°34' E 007°05'0 0.0
2016-May-23 15:33N 43°34' E 007°05'0 0.0
2016-May-23 14:28N 43°34' E 007°05'0 0.0
2016-May-23 13:16N 43°34' E 007°05'0 0.0
2016-May-23 12:31N 43°34' E 007°05'0 0.0
2016-May-23 11:31N 43°34' E 007°05'0 0.0
2016-May-23 10:31N 43°34' E 007°05'0 0.0
2016-May-23 09:31N 43°34' E 007°05'0 0.0
2016-May-23 08:31N 43°34' E 007°05'0 0.0
2016-May-23 07:31N 43°34' E 007°05'0 0.0
2016-May-23 06:31N 43°34' E 007°05'0 0.0
2016-May-23 05:31N 43°34' E 007°05'0 0.0
2016-May-23 04:31N 43°34' E 007°05'0 0.0
2016-May-23 03:31N 43°34' E 007°05'0 0.0
2016-May-23 02:31N 43°34' E 007°05'0 0.0
2016-May-23 01:25N 43°34' E 007°05'0 0.0
2016-May-23 00:31N 43°34' E 007°05'0 0.0
2016-May-22 23:31N 43°34' E 007°05'0 0.0
2016-May-22 22:31N 43°34' E 007°05'0 0.0
2016-May-22 21:31N 43°34' E 007°05'0 0.0
2016-May-22 20:31N 43°34' E 007°05'0 0.0
2016-May-22 19:25N 43°34' E 007°05'0 0.0
2016-May-22 18:31N 43°34' E 007°05'0 0.0
2016-May-22 17:31N 43°34' E 007°05'0 0.0
2016-May-22 16:25N 43°34' E 007°05'0 0.0
2016-May-22 15:10N 43°34' E 007°05'0 0.0
2016-May-22 14:32N 43°34' E 007°05'0 0.0
2016-May-22 12:32N 43°34' E 007°05'0 0.0
2016-May-22 11:32N 43°34' E 007°05'0 0.0
2016-May-22 10:26N 43°34' E 007°05'0 0.0
2016-May-22 09:32N 43°34' E 007°05'0 0.0
2016-May-22 08:26N 43°34' E 007°05'0 0.0
2016-May-22 07:32N 43°34' E 007°05'0 0.0
2016-May-22 06:26N 43°34' E 007°05'0 0.0
2016-May-22 05:26N 43°34' E 007°05'0 0.0
2016-May-22 04:20N 43°34' E 007°05'0 0.0
2016-May-22 03:32N 43°34' E 007°05'0 0.0
2016-May-22 02:32N 43°34' E 007°05'0 0.0
2016-May-22 01:32N 43°34' E 007°05'0 0.0
2016-May-22 00:26N 43°34' E 007°05'0 0.0
2016-May-21 23:26N 43°34' E 007°05'0 0.0
2016-May-21 22:32N 43°34' E 007°05'0 0.0
2016-May-21 21:32N 43°34' E 007°05'0 0.0
2016-May-21 20:32N 43°34' E 007°05'0 0.0
2016-May-21 19:32N 43°34' E 007°05'0 0.0
2016-May-21 18:32N 43°34' E 007°05'0 0.0
2016-May-21 17:32N 43°34' E 007°05'0 0.0
2016-May-21 16:32N 43°34' E 007°05'0 0.0
2016-May-21 15:32N 43°34' E 007°05'0 0.0
2016-May-21 14:32N 43°34' E 007°05'0 0.0
2016-May-21 13:26N 43°34' E 007°05'1 0.7
2016-May-21 12:30N 43°33' E 007°05'4 4.5
2016-May-21 11:33N 43°29' E 007°06'3 2.3
2016-May-21 10:14N 43°31' E 007°03'1 0.8
2016-May-21 08:33N 43°31' E 007°05'3 3.0
2016-May-21 07:31N 43°34' E 007°05'0 0.0
2016-May-21 06:31N 43°34' E 007°05'0 0.0
2016-May-21 05:31N 43°34' E 007°05'0 0.0
2016-May-21 04:31N 43°34' E 007°05'0 0.0
2016-May-21 03:31N 43°34' E 007°05'0 0.0
2016-May-21 02:13N 43°34' E 007°05'0 0.0
2016-May-21 01:31N 43°34' E 007°05'0 0.0
2016-May-21 00:31N 43°34' E 007°05'0 0.0
2016-May-20 23:27N 43°34' E 007°05'0 0.0
2016-May-20 22:33N 43°34' E 007°05'0 0.0
2016-May-20 21:33N 43°34' E 007°05'0 0.0
2016-May-20 20:33N 43°34' E 007°05'0 0.0
2016-May-20 19:33N 43°34' E 007°05'0 0.0
2016-May-20 18:27N 43°34' E 007°05'0 0.0
2016-May-20 17:33N 43°34' E 007°05'0 0.0
2016-May-20 16:27N 43°34' E 007°05'0 0.0
2016-May-20 15:33N 43°34' E 007°05'0 0.0
2016-May-20 14:21N 43°34' E 007°05'0 0.0
2016-May-20 13:33N 43°34' E 007°05'0 0.0
2016-May-20 12:30N 43°34' E 007°05'0 0.0
2016-May-20 11:30N 43°34' E 007°05'0 0.0
2016-May-20 10:30N 43°34' E 007°05'  

Dump ship's entire track history